Fonte Boa, Brazil
Current Conditions -  °F | °C
As of 11:00 AM on Thursday 23 Oct 2014 (Local Time) from SBUY Reporting Station
Broken Clouds Broken Clouds  
Wind Chill: 84°   Ceiling: 9000
Heat Index: 94°   Visibility: 6mi
Dew Point: 77°   Wind: 0mph
Humidity: 79%   Direction: NA
Pressure: 29.91"   Gusts: NA
Location:  2.53°S, 66.02°W
Report Text: SBUY 231500Z 00000KT 9999 FEW020 BKN090 29/25 Q1013
Loading
Personal Weather Stations






























Interactive Weather Map
Tropical Storm Tracking
New forecast layout! Learn more

10-Day Weather Forecast

Advertisements
Track Severe Weather on mobile